Guntersville Observed Data For Previous 48 Hours

Caption
Day and Hour Reservoir Elevation (behind dam)* Tailwater Elevation (below dam)* Average Hourly Discharge*
11/11/2018 1 AM CST 594.87 559.43 73,356
11/11/2018 2 AM CST 594.88 559.41 73,342
11/11/2018 3 AM CST 594.87 559.39 73,350
11/11/2018 4 AM CST 594.88 559.39 73,366
11/11/2018 5 AM CST 594.87 559.40 73,333
11/11/2018 6 AM CST 594.87 559.37 73,327
11/11/2018 7 AM CST 594.86 559.39 73,325
11/11/2018 8 AM CST 594.87 559.39 73,392
11/11/2018 9 AM CST 594.86 559.37 73,418
11/11/2018 10 AM CST 594.83 559.43 73,403
11/11/2018 11 AM CST 594.83 559.39 73,405
11/11/2018 12 PM CST 594.79 559.57 73,368
11/11/2018 1 PM CST 594.80 559.41 73,344
11/11/2018 2 PM CST 594.80 559.42 73,306
11/11/2018 3 PM CST 594.81 559.38 73,371
11/11/2018 4 PM CST 594.79 559.39 73,342
11/11/2018 5 PM CST 594.75 559.39 73,280
11/11/2018 6 PM CST 594.79 559.40 73,246
11/11/2018 7 PM CST 594.78 559.39 73,315
11/11/2018 8 PM CST 594.80 559.36 73,337
11/11/2018 9 PM CST 594.80 559.38 73,298
11/11/2018 10 PM CST 594.79 559.38 73,348
11/11/2018 11 PM CST 594.78 559.36 73,323
11/12/2018 12 AM CST 594.75 559.35 73,311
11/12/2018 1 AM CST 594.75 559.34 73,196
11/12/2018 2 AM CST 594.77 559.33 73,250
11/12/2018 3 AM CST 594.73 559.35 73,216
11/12/2018 4 AM CST 594.74 559.34 73,192
11/12/2018 5 AM CST 594.75 559.33 73,140
11/12/2018 6 AM CST 594.77 559.32 73,148
11/12/2018 7 AM CST 594.80 559.38 73,265
11/12/2018 8 AM CST 594.78 559.37 73,221
11/12/2018 9 AM CST 594.75 559.37 73,216
11/12/2018 10 AM CST 594.75 559.42 73,204
11/12/2018 11 AM CST 594.75 559.44 73,189
11/12/2018 12 PM CST 594.75 559.47 73,115
11/12/2018 1 PM CST 594.76 559.47 73,173
11/12/2018 2 PM CST 594.77 559.51 73,175
11/12/2018 3 PM CST 594.67 559.86 73,092
11/12/2018 4 PM CST 594.68 560.51 88,631
11/12/2018 5 PM CST 594.65 560.74 92,829
11/12/2018 6 PM CST 594.63 560.97 92,781
11/12/2018 7 PM CST 594.63 561.12 92,762
11/12/2018 8 PM CST 594.65 561.20 92,780
11/12/2018 9 PM CST 594.64 561.31 92,721
11/12/2018 10 PM CST 594.61 561.40 92,722
11/12/2018 11 PM CST 594.61 561.45 92,632
11/13/2018 12 AM CST 594.58 561.49 92,629
11/13/2018 1 AM CST 594.60 561.56 92,622
11/13/2018 2 AM CST 594.60 561.61 92,616
11/13/2018 3 AM CST 594.61 561.62 92,590
11/13/2018 4 AM CST 594.60 561.65 92,562
11/13/2018 5 AM CST 594.57 561.74 92,534
11/13/2018 6 AM CST 594.55 561.75 92,469
11/13/2018 7 AM CST 594.53 561.83 92,418
11/13/2018 8 AM CST 594.57 561.81 92,372
11/13/2018 9 AM CST 594.54 561.88 92,420
11/13/2018 10 AM CST 594.53 561.99 92,408

Elevations are in feet above sea level. Discharges are in cubic feet per second and are reported at the end of the hour.